KAC102 EGLL-OKKK
Flight info
| Callsign | KAC102 |
|---|---|
| Flight time | N/A |
| Altitude | 35000 |
| Route | DET L6 DVR UL9 KONAN UL607 MATUG DCT BOMBI DCT DETEV DCT DINKU M867 XERUM DCT BAVAX DCT RADIZ DCT NIPEL DCT BARIT DCT PINDO/N0481F370 DCT AKINA DCT VANZA DCT RASDA A16 CVO L677 MENLI N697 SISIK DCT NAGIP DCT NIMAR DCT HFR A788 SOROR |
| Aircraft | B77W/H-SDE1E2E3FGHIJ2J3J4J5M1RWXY/LB1D1 |
Departure
| Time | N/A |
|---|---|
| Airport | London Heathrow Airport (EGLL) |
Arrival
| Time | 2026-05-09 17:39 |
|---|---|
| Airport | Kuwait International Airport (OKKK) |
| Time | Latitude | Longitude | Altitude | Speed | Heading |
|---|---|---|---|---|---|
| 2026-05-09 15:14 | 34.48896 | 30.15667 | 37068 ft | 526 kts | 159° |
| 2026-05-09 15:14 | 34.45598 | 30.17585 | 37066 ft | 526 kts | 159° |
| 2026-05-09 15:14 | 34.39037 | 30.21401 | 37065 ft | 526 kts | 159° |
| 2026-05-09 15:15 | 34.33534 | 30.24595 | 37068 ft | 526 kts | 159° |
| 2026-05-09 15:15 | 34.25827 | 30.29055 | 37068 ft | 526 kts | 159° |
| 2026-05-09 15:16 | 34.19188 | 30.32888 | 37066 ft | 526 kts | 159° |
| 2026-05-09 15:16 | 34.12602 | 30.36684 | 37063 ft | 525 kts | 159° |
| 2026-05-09 15:17 | 34.06026 | 30.40469 | 37063 ft | 525 kts | 159° |
| 2026-05-09 15:17 | 33.99409 | 30.44270 | 37071 ft | 525 kts | 159° |
| 2026-05-09 15:18 | 33.92853 | 30.48029 | 37069 ft | 525 kts | 159° |
| 2026-05-09 15:18 | 33.86251 | 30.51808 | 37058 ft | 524 kts | 159° |
| 2026-05-09 15:19 | 33.79655 | 30.55578 | 37066 ft | 524 kts | 159° |
| 2026-05-09 15:19 | 33.73112 | 30.59311 | 37064 ft | 524 kts | 159° |
| 2026-05-09 15:20 | 33.63222 | 30.64941 | 37041 ft | 524 kts | 159° |
| 2026-05-09 15:21 | 33.56630 | 30.68686 | 37067 ft | 523 kts | 159° |
| 2026-05-09 15:21 | 33.50052 | 30.72417 | 37074 ft | 523 kts | 159° |
| 2026-05-09 15:22 | 33.43472 | 30.76142 | 37071 ft | 523 kts | 159° |
| 2026-05-09 15:22 | 33.36897 | 30.79859 | 37071 ft | 523 kts | 159° |
| 2026-05-09 15:23 | 33.30320 | 30.83570 | 37070 ft | 522 kts | 159° |
| 2026-05-09 15:23 | 33.23800 | 30.87244 | 37074 ft | 521 kts | 159° |
| 2026-05-09 15:24 | 33.17245 | 30.90932 | 37068 ft | 520 kts | 159° |
| 2026-05-09 15:24 | 33.10560 | 30.94116 | 37069 ft | 514 kts | 168° |
| 2026-05-09 15:25 | 33.03614 | 30.95830 | 37067 ft | 506 kts | 178° |
| 2026-05-09 15:25 | 32.97795 | 30.96450 | 37070 ft | 505 kts | 179° |
| 2026-05-09 15:26 | 32.87295 | 30.97536 | 37074 ft | 505 kts | 179° |
| 2026-05-09 15:26 | 32.80302 | 30.98304 | 37066 ft | 504 kts | 179° |
| 2026-05-09 15:27 | 32.73313 | 30.99085 | 37071 ft | 504 kts | 179° |
| 2026-05-09 15:27 | 32.66333 | 30.99863 | 37067 ft | 503 kts | 179° |
| 2026-05-09 15:28 | 32.59361 | 31.00637 | 37055 ft | 503 kts | 179° |
| 2026-05-09 15:28 | 32.52435 | 31.01404 | 37079 ft | 502 kts | 179° |
| 2026-05-09 15:29 | 32.45476 | 31.02173 | 37066 ft | 502 kts | 179° |
| 2026-05-09 15:29 | 32.38521 | 31.02941 | 37066 ft | 502 kts | 179° |
| 2026-05-09 15:30 | 32.31574 | 31.03706 | 37066 ft | 501 kts | 178° |
| 2026-05-09 15:30 | 32.24630 | 31.04471 | 37072 ft | 500 kts | 178° |
| 2026-05-09 15:31 | 32.17696 | 31.05232 | 37068 ft | 500 kts | 178° |
| 2026-05-09 15:31 | 32.10813 | 31.05987 | 37058 ft | 500 kts | 178° |
| 2026-05-09 15:32 | 32.03884 | 31.06747 | 37063 ft | 500 kts | 178° |
| 2026-05-09 15:32 | 31.96951 | 31.07505 | 37073 ft | 499 kts | 178° |
| 2026-05-09 15:33 | 31.90026 | 31.08261 | 37072 ft | 500 kts | 178° |
| 2026-05-09 15:33 | 31.83108 | 31.09016 | 37071 ft | 500 kts | 178° |
| 2026-05-09 15:34 | 31.76182 | 31.09771 | 37075 ft | 500 kts | 178° |
| 2026-05-09 15:34 | 31.69256 | 31.10524 | 37076 ft | 500 kts | 178° |
| 2026-05-09 15:35 | 31.62323 | 31.11278 | 37065 ft | 500 kts | 178° |
| 2026-05-09 15:35 | 31.55452 | 31.12023 | 37076 ft | 499 kts | 178° |
| 2026-05-09 15:36 | 31.48552 | 31.13031 | 37073 ft | 500 kts | 174° |
| 2026-05-09 15:36 | 31.41653 | 31.14345 | 37073 ft | 501 kts | 174° |
| 2026-05-09 15:37 | 31.34802 | 31.15636 | 37071 ft | 500 kts | 174° |
| 2026-05-09 15:37 | 31.27910 | 31.16901 | 37074 ft | 500 kts | 174° |
| 2026-05-09 15:38 | 31.21079 | 31.18157 | 37071 ft | 500 kts | 174° |
| 2026-05-09 15:38 | 31.14204 | 31.19444 | 37057 ft | 499 kts | 174° |
| 2026-05-09 15:39 | 31.07322 | 31.20735 | 37065 ft | 498 kts | 175° |
| 2026-05-09 15:39 | 31.00512 | 31.22007 | 37065 ft | 498 kts | 175° |
| 2026-05-09 15:40 | 30.93650 | 31.23285 | 37063 ft | 497 kts | 175° |
| 2026-05-09 15:40 | 30.86842 | 31.24551 | 37052 ft | 497 kts | 174° |
| 2026-05-09 15:41 | 30.80004 | 31.25821 | 37058 ft | 496 kts | 175° |
| 2026-05-09 15:41 | 30.73205 | 31.27082 | 37060 ft | 496 kts | 175° |
| 2026-05-09 15:42 | 30.66368 | 31.28348 | 37060 ft | 496 kts | 175° |
| 2026-05-09 15:42 | 30.59592 | 31.29601 | 37057 ft | 496 kts | 175° |
| 2026-05-09 15:43 | 30.52755 | 31.30864 | 37054 ft | 496 kts | 175° |
| 2026-05-09 15:43 | 30.45963 | 31.32117 | 37062 ft | 496 kts | 175° |
| 2026-05-09 15:44 | 30.39118 | 31.33366 | 37033 ft | 496 kts | 175° |
| 2026-05-09 15:44 | 30.32325 | 31.34601 | 37048 ft | 496 kts | 175° |
| 2026-05-09 15:45 | 30.25495 | 31.35842 | 37055 ft | 495 kts | 175° |
| 2026-05-09 15:45 | 30.18727 | 31.37072 | 37050 ft | 495 kts | 175° |
| 2026-05-09 15:46 | 30.11966 | 31.38646 | 37037 ft | 500 kts | 162° |
| 2026-05-09 15:46 | 30.08871 | 31.40534 | 37038 ft | 509 kts | 149° |
| 2026-05-09 15:46 | 30.06166 | 31.43218 | 37049 ft | 516 kts | 135° |
| 2026-05-09 15:47 | 30.01907 | 31.49917 | 37042 ft | 520 kts | 128° |
| 2026-05-09 15:47 | 29.97679 | 31.56722 | 37050 ft | 521 kts | 130° |
| 2026-05-09 15:48 | 29.93371 | 31.63408 | 37078 ft | 522 kts | 130° |
| 2026-05-09 15:48 | 29.89019 | 31.70144 | 37073 ft | 524 kts | 130° |
| 2026-05-09 15:49 | 29.84677 | 31.76905 | 37073 ft | 524 kts | 130° |
| 2026-05-09 15:49 | 29.80445 | 31.83756 | 37067 ft | 527 kts | 124° |
| 2026-05-09 15:50 | 29.77296 | 31.91421 | 37066 ft | 533 kts | 112° |
| 2026-05-09 15:50 | 29.75326 | 31.99619 | 37068 ft | 535 kts | 105° |
| 2026-05-09 15:51 | 29.73567 | 32.07963 | 37056 ft | 535 kts | 106° |
| 2026-05-09 15:51 | 29.71764 | 32.16267 | 37054 ft | 535 kts | 106° |
| 2026-05-09 15:52 | 29.68989 | 32.28675 | 37049 ft | 535 kts | 107° |
| 2026-05-09 15:53 | 29.67127 | 32.36955 | 37032 ft | 535 kts | 107° |
| 2026-05-09 15:53 | 29.65259 | 32.45253 | 37039 ft | 535 kts | 107° |
| 2026-05-09 15:54 | 29.63400 | 32.53493 | 37030 ft | 536 kts | 107° |
| 2026-05-09 15:54 | 29.61520 | 32.61800 | 37020 ft | 536 kts | 107° |
| 2026-05-09 15:55 | 29.59641 | 32.70062 | 37025 ft | 536 kts | 107° |
| 2026-05-09 15:55 | 29.57662 | 32.78342 | 37015 ft | 536 kts | 108° |
| 2026-05-09 15:56 | 29.55648 | 32.86561 | 37007 ft | 537 kts | 108° |
| 2026-05-09 15:56 | 29.53620 | 32.94853 | 37014 ft | 537 kts | 108° |
| 2026-05-09 15:57 | 29.51615 | 33.03081 | 37019 ft | 537 kts | 108° |
| 2026-05-09 15:57 | 29.49596 | 33.11361 | 37019 ft | 538 kts | 108° |
| 2026-05-09 15:58 | 29.47569 | 33.19647 | 37008 ft | 538 kts | 108° |
| 2026-05-09 15:58 | 29.45550 | 33.27870 | 37017 ft | 538 kts | 108° |
| 2026-05-09 15:59 | 29.43511 | 33.36149 | 37021 ft | 538 kts | 108° |
| 2026-05-09 15:59 | 29.41474 | 33.44395 | 37020 ft | 538 kts | 108° |
| 2026-05-09 16:00 | 29.39428 | 33.52657 | 37028 ft | 538 kts | 108° |
| 2026-05-09 16:00 | 29.37387 | 33.60872 | 37031 ft | 538 kts | 108° |
| 2026-05-09 16:01 | 29.35328 | 33.69140 | 37034 ft | 538 kts | 108° |
| 2026-05-09 16:01 | 29.33264 | 33.77402 | 37033 ft | 538 kts | 108° |
| 2026-05-09 16:02 | 29.31207 | 33.85609 | 37032 ft | 538 kts | 108° |
| 2026-05-09 16:02 | 29.28099 | 33.97971 | 37033 ft | 539 kts | 108° |
| 2026-05-09 16:03 | 29.26014 | 34.06234 | 37030 ft | 539 kts | 108° |
| 2026-05-09 16:03 | 29.23930 | 34.14471 | 37030 ft | 539 kts | 109° |
| 2026-05-09 16:04 | 29.21848 | 34.22673 | 37013 ft | 539 kts | 109° |
| 2026-05-09 16:04 | 29.19750 | 34.30919 | 37019 ft | 540 kts | 109° |
| 2026-05-09 16:05 | 29.17648 | 34.39158 | 36990 ft | 540 kts | 109° |
| 2026-05-09 16:05 | 29.15531 | 34.47425 | 36979 ft | 540 kts | 109° |
| 2026-05-09 16:06 | 29.13414 | 34.55675 | 36959 ft | 541 kts | 109° |
| 2026-05-09 16:06 | 29.11297 | 34.63901 | 36944 ft | 541 kts | 109° |
| 2026-05-09 16:07 | 29.09169 | 34.72149 | 36943 ft | 541 kts | 109° |
| 2026-05-09 16:07 | 29.07039 | 34.80379 | 36934 ft | 541 kts | 109° |
| 2026-05-09 16:08 | 29.04894 | 34.88643 | 36940 ft | 541 kts | 109° |
| 2026-05-09 16:08 | 29.02756 | 34.96860 | 36941 ft | 542 kts | 109° |
| 2026-05-09 16:09 | 29.00599 | 35.05128 | 36958 ft | 542 kts | 109° |
| 2026-05-09 16:09 | 28.98436 | 35.13393 | 36962 ft | 542 kts | 109° |
| 2026-05-09 16:10 | 28.96284 | 35.21594 | 36967 ft | 542 kts | 109° |
| 2026-05-09 16:10 | 28.94115 | 35.29839 | 36984 ft | 542 kts | 109° |
| 2026-05-09 16:11 | 28.91945 | 35.38066 | 36993 ft | 541 kts | 109° |
| 2026-05-09 16:11 | 28.89767 | 35.46301 | 36977 ft | 541 kts | 109° |
| 2026-05-09 16:12 | 28.87954 | 35.53134 | 36975 ft | 541 kts | 109° |
| 2026-05-09 16:12 | 28.85416 | 35.62682 | 36977 ft | 540 kts | 109° |
| 2026-05-09 16:13 | 28.83581 | 35.69562 | 36968 ft | 540 kts | 109° |
| 2026-05-09 16:13 | 28.81404 | 35.77710 | 36952 ft | 540 kts | 109° |
| 2026-05-09 16:14 | 28.79204 | 35.85920 | 36951 ft | 539 kts | 109° |
| 2026-05-09 16:14 | 28.77021 | 35.94046 | 36946 ft | 539 kts | 109° |
| 2026-05-09 16:15 | 28.74815 | 36.02233 | 36941 ft | 539 kts | 109° |
| 2026-05-09 16:15 | 28.72620 | 36.10365 | 36931 ft | 539 kts | 109° |
| 2026-05-09 16:16 | 28.71011 | 36.18724 | 36924 ft | 542 kts | 96° |
| 2026-05-09 16:16 | 28.71024 | 36.27329 | 36935 ft | 544 kts | 83° |
| 2026-05-09 16:17 | 28.72103 | 36.35810 | 36931 ft | 543 kts | 82° |
| 2026-05-09 16:17 | 28.73244 | 36.44347 | 36924 ft | 543 kts | 82° |
| 2026-05-09 16:18 | 28.74318 | 36.52832 | 36922 ft | 543 kts | 82° |
| 2026-05-09 16:18 | 28.75354 | 36.61373 | 36931 ft | 542 kts | 82° |
| 2026-05-09 16:19 | 28.76369 | 36.69858 | 36933 ft | 542 kts | 83° |
| 2026-05-09 16:19 | 28.77388 | 36.78394 | 36941 ft | 542 kts | 83° |
| 2026-05-09 16:20 | 28.78406 | 36.86935 | 36968 ft | 542 kts | 83° |
| 2026-05-09 16:20 | 28.79415 | 36.95439 | 36958 ft | 543 kts | 83° |
| 2026-05-09 16:21 | 28.80418 | 37.03944 | 36966 ft | 543 kts | 83° |
| 2026-05-09 16:21 | 28.81422 | 37.12506 | 36969 ft | 544 kts | 83° |
| 2026-05-09 16:22 | 28.82420 | 37.21071 | 36976 ft | 544 kts | 83° |
| 2026-05-09 16:22 | 28.83408 | 37.29588 | 36977 ft | 544 kts | 83° |
| 2026-05-09 16:23 | 28.84391 | 37.38116 | 36983 ft | 544 kts | 83° |
| 2026-05-09 16:23 | 28.85373 | 37.46679 | 36993 ft | 544 kts | 83° |
| 2026-05-09 16:24 | 28.86352 | 37.55270 | 36986 ft | 545 kts | 83° |
| 2026-05-09 16:24 | 28.87320 | 37.63806 | 36989 ft | 545 kts | 83° |
| 2026-05-09 16:25 | 28.88289 | 37.72407 | 36986 ft | 546 kts | 83° |
| 2026-05-09 16:25 | 28.89253 | 37.81018 | 36988 ft | 546 kts | 83° |
| 2026-05-09 16:26 | 28.90206 | 37.89573 | 36992 ft | 546 kts | 83° |
| 2026-05-09 16:26 | 28.91159 | 37.98179 | 36989 ft | 546 kts | 83° |
| 2026-05-09 16:27 | 28.92108 | 38.06798 | 37002 ft | 546 kts | 83° |
| 2026-05-09 16:27 | 28.93046 | 38.15378 | 36999 ft | 547 kts | 83° |
| 2026-05-09 16:28 | 28.93980 | 38.23963 | 37004 ft | 547 kts | 83° |
| 2026-05-09 16:28 | 28.94913 | 38.32594 | 37012 ft | 547 kts | 83° |
| 2026-05-09 16:29 | 28.95842 | 38.41238 | 37007 ft | 547 kts | 83° |
| 2026-05-09 16:29 | 28.96760 | 38.49839 | 37021 ft | 547 kts | 83° |
| 2026-05-09 16:30 | 28.97677 | 38.58479 | 37014 ft | 548 kts | 83° |
| 2026-05-09 16:30 | 28.98585 | 38.67088 | 36991 ft | 548 kts | 83° |
| 2026-05-09 16:31 | 28.99491 | 38.75737 | 37016 ft | 547 kts | 83° |
| 2026-05-09 16:31 | 29.00388 | 38.84345 | 37023 ft | 547 kts | 83° |
| 2026-05-09 16:32 | 29.01134 | 38.91547 | 37025 ft | 547 kts | 83° |
| 2026-05-09 16:32 | 29.02168 | 39.01596 | 37040 ft | 547 kts | 83° |
| 2026-05-09 16:33 | 29.03055 | 39.10272 | 37035 ft | 548 kts | 83° |
| 2026-05-09 16:33 | 29.03929 | 39.18884 | 37042 ft | 548 kts | 83° |
| 2026-05-09 16:34 | 29.04804 | 39.27564 | 37050 ft | 548 kts | 84° |
| 2026-05-09 16:34 | 29.05668 | 39.36184 | 37050 ft | 549 kts | 84° |
| 2026-05-09 16:35 | 29.06535 | 39.44886 | 37061 ft | 549 kts | 84° |
| 2026-05-09 16:35 | 29.07389 | 39.53526 | 37065 ft | 550 kts | 84° |
| 2026-05-09 16:36 | 29.09090 | 39.70902 | 37066 ft | 550 kts | 84° |
| 2026-05-09 16:37 | 29.09934 | 39.79610 | 37070 ft | 550 kts | 84° |
| 2026-05-09 16:37 | 29.10716 | 39.88336 | 37074 ft | 550 kts | 87° |
| 2026-05-09 16:38 | 29.10520 | 39.97007 | 37077 ft | 548 kts | 98° |
| 2026-05-09 16:38 | 29.09601 | 40.05685 | 37068 ft | 548 kts | 98° |
| 2026-05-09 16:39 | 29.08681 | 40.14303 | 37077 ft | 547 kts | 98° |
| 2026-05-09 16:39 | 29.07797 | 40.22958 | 37086 ft | 547 kts | 98° |
| 2026-05-09 16:40 | 29.06937 | 40.31560 | 37087 ft | 547 kts | 98° |
| 2026-05-09 16:42 | 29.03426 | 40.66064 | 37100 ft | 546 kts | 98° |
| 2026-05-09 16:42 | 29.02531 | 40.74700 | 37089 ft | 546 kts | 98° |
| 2026-05-09 16:43 | 29.01636 | 40.83283 | 37106 ft | 546 kts | 98° |
| 2026-05-09 16:43 | 29.00728 | 40.91929 | 37087 ft | 547 kts | 98° |
| 2026-05-09 16:44 | 28.99816 | 41.00568 | 37087 ft | 547 kts | 98° |
| 2026-05-09 16:44 | 28.98899 | 41.09202 | 37087 ft | 547 kts | 98° |
| 2026-05-09 16:45 | 28.97981 | 41.17787 | 37089 ft | 547 kts | 98° |
| 2026-05-09 16:45 | 28.97052 | 41.26427 | 37079 ft | 546 kts | 98° |
| 2026-05-09 16:46 | 28.96124 | 41.35006 | 37089 ft | 546 kts | 99° |
| 2026-05-09 16:46 | 28.95190 | 41.43585 | 37093 ft | 546 kts | 99° |
| 2026-05-09 16:47 | 28.94244 | 41.52218 | 37078 ft | 546 kts | 99° |
| 2026-05-09 16:47 | 28.93294 | 41.60836 | 37065 ft | 546 kts | 99° |
| 2026-05-09 16:48 | 28.92345 | 41.69395 | 37090 ft | 546 kts | 99° |
| 2026-05-09 16:48 | 28.91383 | 41.78029 | 37064 ft | 547 kts | 99° |
| 2026-05-09 16:49 | 28.90422 | 41.86600 | 37075 ft | 547 kts | 99° |
| 2026-05-09 16:50 | 28.88959 | 41.99551 | 37052 ft | 547 kts | 99° |
| 2026-05-09 16:50 | 28.87984 | 42.08119 | 37076 ft | 546 kts | 99° |
| 2026-05-09 16:51 | 28.86999 | 42.16720 | 37070 ft | 545 kts | 100° |
| 2026-05-09 16:51 | 28.86017 | 42.25259 | 37066 ft | 545 kts | 100° |
| 2026-05-09 16:52 | 28.85023 | 42.33845 | 37066 ft | 544 kts | 100° |
| 2026-05-09 16:52 | 28.84026 | 42.42409 | 37060 ft | 544 kts | 100° |
| 2026-05-09 16:53 | 28.83029 | 42.50924 | 37081 ft | 544 kts | 100° |
| 2026-05-09 16:53 | 28.82026 | 42.59446 | 37063 ft | 544 kts | 100° |
| 2026-05-09 16:54 | 28.81010 | 42.68028 | 37057 ft | 545 kts | 100° |
| 2026-05-09 16:54 | 28.79989 | 42.76602 | 37063 ft | 545 kts | 100° |
| 2026-05-09 16:55 | 28.78962 | 42.85186 | 37060 ft | 546 kts | 100° |
| 2026-05-09 16:55 | 28.77933 | 42.93741 | 37054 ft | 546 kts | 100° |
| 2026-05-09 16:56 | 28.76894 | 43.02325 | 37050 ft | 546 kts | 100° |
| 2026-05-09 16:56 | 28.75856 | 43.10857 | 37052 ft | 546 kts | 100° |
| 2026-05-09 16:57 | 28.74983 | 43.18003 | 37052 ft | 546 kts | 100° |
| 2026-05-09 16:57 | 28.73929 | 43.26587 | 37037 ft | 546 kts | 101° |
| 2026-05-09 16:58 | 28.72870 | 43.35159 | 37047 ft | 546 kts | 101° |
| 2026-05-09 16:58 | 28.71806 | 43.43731 | 37031 ft | 547 kts | 101° |
| 2026-05-09 16:59 | 28.70735 | 43.52305 | 37034 ft | 547 kts | 101° |
| 2026-05-09 16:59 | 28.69661 | 43.60867 | 37033 ft | 547 kts | 101° |
| 2026-05-09 17:00 | 28.68577 | 43.69467 | 37030 ft | 547 kts | 101° |
| 2026-05-09 17:00 | 28.67488 | 43.78058 | 37038 ft | 547 kts | 101° |
| 2026-05-09 17:01 | 28.66400 | 43.86595 | 37032 ft | 547 kts | 101° |
| 2026-05-09 17:01 | 28.65301 | 43.95172 | 37036 ft | 547 kts | 101° |
| 2026-05-09 17:02 | 28.64195 | 44.03765 | 37026 ft | 546 kts | 101° |
| 2026-05-09 17:02 | 28.63093 | 44.12282 | 37044 ft | 546 kts | 101° |
| 2026-05-09 17:03 | 28.61979 | 44.20846 | 37035 ft | 546 kts | 101° |
| 2026-05-09 17:05 | 28.57471 | 44.55067 | 37041 ft | 548 kts | 102° |
| 2026-05-09 17:05 | 28.56324 | 44.63676 | 37031 ft | 549 kts | 102° |
| 2026-05-09 17:06 | 28.55179 | 44.72218 | 37038 ft | 549 kts | 102° |
| 2026-05-09 17:06 | 28.54020 | 44.80826 | 37042 ft | 550 kts | 102° |
| 2026-05-09 17:07 | 28.52860 | 44.89395 | 37041 ft | 550 kts | 102° |
| 2026-05-09 17:07 | 28.51690 | 44.98006 | 37040 ft | 550 kts | 102° |
| 2026-05-09 17:08 | 28.50519 | 45.06582 | 37034 ft | 550 kts | 102° |
| 2026-05-09 17:08 | 28.48749 | 45.19450 | 37035 ft | 550 kts | 103° |
| 2026-05-09 17:09 | 28.47559 | 45.28060 | 37036 ft | 550 kts | 103° |
| 2026-05-09 17:09 | 28.46363 | 45.36669 | 37039 ft | 550 kts | 103° |
| 2026-05-09 17:10 | 28.45169 | 45.45219 | 37038 ft | 550 kts | 103° |
| 2026-05-09 17:10 | 28.43961 | 45.53833 | 37035 ft | 550 kts | 103° |
| 2026-05-09 17:11 | 28.42756 | 45.62388 | 37045 ft | 551 kts | 103° |
| 2026-05-09 17:11 | 28.41536 | 45.71001 | 37038 ft | 551 kts | 103° |
| 2026-05-09 17:12 | 28.40318 | 45.79569 | 37030 ft | 551 kts | 103° |
| 2026-05-09 17:12 | 28.39085 | 45.88198 | 37021 ft | 552 kts | 103° |
| 2026-05-09 17:13 | 28.37855 | 45.96772 | 37049 ft | 552 kts | 103° |
| 2026-05-09 17:13 | 28.36628 | 46.05405 | 37049 ft | 554 kts | 102° |
| 2026-05-09 17:14 | 28.36284 | 46.14153 | 37055 ft | 561 kts | 91° |
| 2026-05-09 17:14 | 28.37179 | 46.23010 | 37057 ft | 565 kts | 83° |
| 2026-05-09 17:15 | 28.38529 | 46.31769 | 37045 ft | 564 kts | 82° |
| 2026-05-09 17:15 | 28.39197 | 46.36130 | 37009 ft | 552 kts | 83° |
| 2026-05-09 17:15 | 28.39836 | 46.40425 | 36284 ft | 552 kts | 83° |
| 2026-05-09 17:16 | 28.40458 | 46.44732 | 35560 ft | 550 kts | 83° |
| 2026-05-09 17:17 | 28.44556 | 46.73825 | 29324 ft | 497 kts | 80° |
| 2026-05-09 17:18 | 28.45094 | 46.77654 | 28702 ft | 498 kts | 80° |
| 2026-05-09 17:18 | 28.45645 | 46.81584 | 28071 ft | 507 kts | 80° |
| 2026-05-09 17:18 | 28.46205 | 46.85589 | 27439 ft | 515 kts | 80° |
| 2026-05-09 17:18 | 28.46765 | 46.89614 | 26796 ft | 513 kts | 80° |
| 2026-05-09 17:19 | 28.47311 | 46.93562 | 26164 ft | 508 kts | 80° |
| 2026-05-09 17:19 | 28.47856 | 46.97525 | 25540 ft | 504 kts | 80° |
| 2026-05-09 17:19 | 28.48396 | 47.01456 | 24910 ft | 500 kts | 79° |
| 2026-05-09 17:19 | 28.48931 | 47.05352 | 24274 ft | 496 kts | 79° |
| 2026-05-09 17:20 | 28.49460 | 47.09217 | 23640 ft | 493 kts | 79° |
| 2026-05-09 17:20 | 28.49981 | 47.13024 | 22928 ft | 490 kts | 79° |
| 2026-05-09 17:20 | 28.50502 | 47.16839 | 22272 ft | 485 kts | 79° |
| 2026-05-09 17:20 | 28.51018 | 47.20629 | 21645 ft | 480 kts | 79° |
| 2026-05-09 17:21 | 28.51527 | 47.24371 | 21024 ft | 476 kts | 79° |
| 2026-05-09 17:21 | 28.52030 | 47.28077 | 20428 ft | 472 kts | 80° |
| 2026-05-09 17:21 | 28.52521 | 47.31707 | 19836 ft | 468 kts | 80° |
| 2026-05-09 17:21 | 28.53014 | 47.35359 | 19225 ft | 465 kts | 80° |
| 2026-05-09 17:22 | 28.53499 | 47.38955 | 18609 ft | 451 kts | 80° |
| 2026-05-09 17:22 | 28.53973 | 47.42481 | 17987 ft | 448 kts | 80° |
| 2026-05-09 17:22 | 28.54439 | 47.45949 | 17372 ft | 446 kts | 80° |
| 2026-05-09 17:22 | 28.54901 | 47.49403 | 17114 ft | 434 kts | 80° |
| 2026-05-09 17:23 | 28.55348 | 47.52749 | 16999 ft | 419 kts | 80° |
| 2026-05-09 17:23 | 28.55779 | 47.55977 | 16993 ft | 403 kts | 80° |
| 2026-05-09 17:23 | 28.56186 | 47.59031 | 16985 ft | 387 kts | 80° |
| 2026-05-09 17:23 | 28.56582 | 47.62006 | 16984 ft | 372 kts | 80° |
| 2026-05-09 17:25 | 28.57410 | 47.76304 | 16079 ft | 352 kts | 88° |
| 2026-05-09 17:25 | 28.57447 | 47.79099 | 15280 ft | 353 kts | 88° |
| 2026-05-09 17:25 | 28.57497 | 47.81865 | 14559 ft | 353 kts | 88° |
| 2026-05-09 17:25 | 28.57556 | 47.84652 | 13901 ft | 350 kts | 88° |
| 2026-05-09 17:26 | 28.57619 | 47.87400 | 13423 ft | 340 kts | 88° |
| 2026-05-09 17:26 | 28.57680 | 47.90042 | 13063 ft | 329 kts | 88° |
| 2026-05-09 17:26 | 28.57741 | 47.92640 | 12767 ft | 329 kts | 88° |
| 2026-05-09 17:26 | 28.57801 | 47.95236 | 12450 ft | 336 kts | 88° |
| 2026-05-09 17:27 | 28.57994 | 47.97900 | 12074 ft | 339 kts | 73° |
| 2026-05-09 17:27 | 28.58981 | 48.00306 | 11727 ft | 331 kts | 49° |
| 2026-05-09 17:27 | 28.60376 | 48.02355 | 11404 ft | 325 kts | 47° |
| 2026-05-09 17:27 | 28.61749 | 48.04361 | 11048 ft | 315 kts | 47° |
| 2026-05-09 17:28 | 28.63052 | 48.06284 | 10707 ft | 305 kts | 47° |
| 2026-05-09 17:28 | 28.64348 | 48.08209 | 10395 ft | 305 kts | 48° |
| 2026-05-09 17:28 | 28.65642 | 48.10141 | 10170 ft | 307 kts | 48° |
| 2026-05-09 17:28 | 28.66912 | 48.12048 | 10008 ft | 295 kts | 48° |
| 2026-05-09 17:29 | 28.68170 | 48.13876 | 9678 ft | 289 kts | 40° |
| 2026-05-09 17:29 | 28.69771 | 48.15083 | 9364 ft | 275 kts | 11° |
| 2026-05-09 17:29 | 28.71638 | 48.15414 | 9040 ft | 268 kts | 352° |
| 2026-05-09 17:29 | 28.73491 | 48.15198 | 8721 ft | 266 kts | 347° |
| 2026-05-09 17:30 | 28.75329 | 48.14912 | 8236 ft | 265 kts | 347° |
| 2026-05-09 17:30 | 28.77122 | 48.14628 | 7732 ft | 262 kts | 348° |
| 2026-05-09 17:30 | 28.78928 | 48.14343 | 7170 ft | 261 kts | 349° |
| 2026-05-09 17:30 | 28.80726 | 48.14064 | 6667 ft | 259 kts | 350° |
| 2026-05-09 17:31 | 28.82500 | 48.13792 | 6169 ft | 256 kts | 351° |
| 2026-05-09 17:31 | 28.84261 | 48.13524 | 5655 ft | 253 kts | 351° |
| 2026-05-09 17:32 | 28.91284 | 48.12466 | 4013 ft | 256 kts | 352° |
| 2026-05-09 17:32 | 28.93052 | 48.12200 | 3703 ft | 255 kts | 352° |
| 2026-05-09 17:32 | 28.94776 | 48.11942 | 3384 ft | 250 kts | 352° |
| 2026-05-09 17:33 | 28.96503 | 48.11675 | 3090 ft | 247 kts | 350° |
| 2026-05-09 17:33 | 28.98078 | 48.11040 | 2969 ft | 237 kts | 334° |
| 2026-05-09 17:33 | 28.99537 | 48.10122 | 2884 ft | 242 kts | 332° |
| 2026-05-09 17:33 | 29.00995 | 48.09168 | 2786 ft | 245 kts | 332° |
| 2026-05-09 17:34 | 29.02488 | 48.08205 | 2692 ft | 244 kts | 332° |
| 2026-05-09 17:35 | 29.10223 | 48.03518 | 2293 ft | 198 kts | 337° |
| 2026-05-09 17:35 | 29.11479 | 48.02850 | 2102 ft | 193 kts | 337° |
| 2026-05-09 17:36 | 29.12664 | 48.02221 | 1732 ft | 182 kts | 336° |
| 2026-05-09 17:36 | 29.13762 | 48.01634 | 1609 ft | 176 kts | 336° |
| 2026-05-09 17:36 | 29.14855 | 48.01052 | 1440 ft | 165 kts | 337° |
| 2026-05-09 17:36 | 29.15838 | 48.00529 | 1273 ft | 147 kts | 337° |
| 2026-05-09 17:37 | 29.16720 | 48.00060 | 1102 ft | 134 kts | 337° |
| 2026-05-09 17:37 | 29.17558 | 47.99609 | 949 ft | 134 kts | 337° |
| 2026-05-09 17:37 | 29.18387 | 47.99130 | 810 ft | 131 kts | 338° |
| 2026-05-09 17:37 | 29.19247 | 47.98690 | 655 ft | 137 kts | 340° |
| 2026-05-09 17:38 | 29.20103 | 47.98245 | 455 ft | 137 kts | 339° |
| 2026-05-09 17:38 | 29.20963 | 47.97791 | 279 ft | 136 kts | 338° |
| 2026-05-09 17:38 | 29.21816 | 47.97344 | 173 ft | 125 kts | 335° |
| 2026-05-09 17:39 | 29.22910 | 47.96759 | 168 ft | 60 kts | 335° |
| 2026-05-09 17:39 | 29.23257 | 47.96574 | 168 ft | 52 kts | 335° |
| 2026-05-09 17:39 | 29.23567 | 47.96411 | 166 ft | 46 kts | 335° |
| 2026-05-09 17:39 | 29.23846 | 47.96262 | 165 ft | 42 kts | 335° |
| 2026-05-09 17:40 | 29.24055 | 47.96191 | 165 ft | 26 kts | 359° |
| 2026-05-09 17:40 | 29.24147 | 47.96264 | 166 ft | 15 kts | 65° |
| 2026-05-09 17:40 | 29.24188 | 47.96319 | 168 ft | 6 kts | 9° |
| 2026-05-09 17:40 | 29.24228 | 47.96308 | 169 ft | 7 kts | 339° |
| 2026-05-09 17:41 | 29.24289 | 47.96275 | 169 ft | 10 kts | 334° |
| 2026-05-09 17:41 | 29.24354 | 47.96240 | 169 ft | 11 kts | 335° |
| 2026-05-09 17:41 | 29.24429 | 47.96200 | 169 ft | 12 kts | 335° |
| 2026-05-09 17:41 | 29.24505 | 47.96160 | 169 ft | 12 kts | 335° |
| 2026-05-09 17:42 | 29.24580 | 47.96120 | 169 ft | 12 kts | 335° |
| 2026-05-09 17:42 | 29.24618 | 47.96114 | 170 ft | 0 kts | 28° |
| 2026-05-09 17:42 | 29.24621 | 47.96116 | 170 ft | 5 kts | 31° |
| 2026-05-09 17:42 | 29.24649 | 47.96163 | 171 ft | 6 kts | 63° |
| 2026-05-09 17:43 | 29.24663 | 47.96195 | 172 ft | 0 kts | 64° |